sensor_id;sensor_type;location;lat;lon;timestamp;temperature;humidity
74420;DHT22;62855;50.718;-2.460;2022-11-15T00:02:01;53.78;72.00
74420;DHT22;62855;50.718;-2.460;2022-11-15T00:05:01;53.78;72.00
74420;DHT22;62855;50.718;-2.460;2022-11-15T00:08:01;53.78;72.00
74420;DHT22;62855;50.718;-2.460;2022-11-15T00:11:02;53.60;72.00
74420;DHT22;62855;50.718;-2.460;2022-11-15T00:14:01;53.78;72.00
74420;DHT22;62855;50.718;-2.460;2022-11-15T00:17:00;53.78;72.00
74420;DHT22;62855;50.718;-2.460;2022-11-15T00:20:01;53.78;72.00
74420;DHT22;62855;50.718;-2.460;2022-11-15T00:23:03;53.78;72.00
74420;DHT22;62855;50.718;-2.460;2022-11-15T00:26:02;53.78;72.00
74420;DHT22;62855;50.718;-2.460;2022-11-15T00:29:01;53.78;72.00
74420;DHT22;62855;50.718;-2.460;2022-11-15T00:32:01;53.78;72.00
74420;DHT22;62855;50.718;-2.460;2022-11-15T00:35:00;53.78;72.00
74420;DHT22;62855;50.718;-2.460;2022-11-15T00:38:01;53.60;73.00
74420;DHT22;62855;50.718;-2.460;2022-11-15T00:41:01;53.60;73.00
74420;DHT22;62855;50.718;-2.460;2022-11-15T00:44:01;53.60;73.00
74420;DHT22;62855;50.718;-2.460;2022-11-15T00:47:02;53.60;73.00
74420;DHT22;62855;50.718;-2.460;2022-11-15T00:50:02;53.78;73.00
74420;DHT22;62855;50.718;-2.460;2022-11-15T00:53:01;53.78;73.00
74420;DHT22;62855;50.718;-2.460;2022-11-15T00:56:01;53.78;73.00
74420;DHT22;62855;50.718;-2.460;2022-11-15T00:59:01;53.78;73.00
74420;DHT22;62855;50.718;-2.460;2022-11-15T01:02:02;53.78;73.00
74420;DHT22;62855;50.718;-2.460;2022-11-15T01:05:01;53.78;73.00
74420;DHT22;62855;50.718;-2.460;2022-11-15T01:08:01;53.78;73.00
74420;DHT22;62855;50.718;-2.460;2022-11-15T01:11:01;53.78;73.00
74420;DHT22;62855;50.718;-2.460;2022-11-15T01:14:01;53.78;74.00
74420;DHT22;62855;50.718;-2.460;2022-11-15T01:17:01;53.60;74.00
74420;DHT22;62855;50.718;-2.460;2022-11-15T01:20:01;53.60;74.00
74420;DHT22;62855;50.718;-2.460;2022-11-15T01:23:01;53.60;75.00
74420;DHT22;62855;50.718;-2.460;2022-11-15T01:26:02;53.42;75.00
74420;DHT22;62855;50.718;-2.460;2022-11-15T01:29:00;53.42;76.00
74420;DHT22;62855;50.718;-2.460;2022-11-15T01:32:01;53.24;80.00
74420;DHT22;62855;50.718;-2.460;2022-11-15T01:35:02;53.24;80.00
74420;DHT22;62855;50.718;-2.460;2022-11-15T01:38:01;53.24;80.00
74420;DHT22;62855;50.718;-2.460;2022-11-15T01:41:00;53.24;81.00
74420;DHT22;62855;50.718;-2.460;2022-11-15T01:47:02;53.06;82.00
74420;DHT22;62855;50.718;-2.460;2022-11-15T01:50:05;52.88;82.00
74420;DHT22;62855;50.718;-2.460;2022-11-15T01:53:01;52.88;83.00
74420;DHT22;62855;50.718;-2.460;2022-11-15T01:56:03;52.88;83.00
74420;DHT22;62855;50.718;-2.460;2022-11-15T01:59:05;52.70;84.00
74420;DHT22;62855;50.718;-2.460;2022-11-15T02:02:00;52.70;85.00
74420;DHT22;62855;50.718;-2.460;2022-11-15T02:05:01;52.70;85.00
74420;DHT22;62855;50.718;-2.460;2022-11-15T02:08:01;52.70;86.00
74420;DHT22;62855;50.718;-2.460;2022-11-15T02:11:04;52.70;86.00
74420;DHT22;62855;50.718;-2.460;2022-11-15T02:14:03;52.70;87.00
74420;DHT22;62855;50.718;-2.460;2022-11-15T02:17:13;52.70;87.00
74420;DHT22;62855;50.718;-2.460;2022-11-15T02:20:19;52.70;87.00
74420;DHT22;62855;50.718;-2.460;2022-11-15T02:23:15;52.70;88.00
74420;DHT22;62855;50.718;-2.460;2022-11-15T02:26:17;52.70;88.00
74420;DHT22;62855;50.718;-2.460;2022-11-15T02:29:03;52.70;88.00
74420;DHT22;62855;50.718;-2.460;2022-11-15T02:32:05;52.70;88.00
74420;DHT22;62855;50.718;-2.460;2022-11-15T02:35:05;52.70;89.00
74420;DHT22;62855;50.718;-2.460;2022-11-15T02:38:05;52.70;89.00
74420;DHT22;62855;50.718;-2.460;2022-11-15T02:41:04;52.70;89.00
74420;DHT22;62855;50.718;-2.460;2022-11-15T02:44:04;52.70;89.00
74420;DHT22;62855;50.718;-2.460;2022-11-15T02:47:03;52.70;90.00
74420;DHT22;62855;50.718;-2.460;2022-11-15T02:50:02;52.70;90.00
74420;DHT22;62855;50.718;-2.460;2022-11-15T02:53:01;52.70;90.00
74420;DHT22;62855;50.718;-2.460;2022-11-15T02:56:01;52.70;90.00
74420;DHT22;62855;50.718;-2.460;2022-11-15T02:59:13;52.70;90.00
74420;DHT22;62855;50.718;-2.460;2022-11-15T03:02:11;52.70;90.00
74420;DHT22;62855;50.718;-2.460;2022-11-15T03:05:04;52.70;90.00
74420;DHT22;62855;50.718;-2.460;2022-11-15T03:08:06;52.70;90.00
74420;DHT22;62855;50.718;-2.460;2022-11-15T03:11:06;52.70;90.00
74420;DHT22;62855;50.718;-2.460;2022-11-15T03:14:07;52.70;90.00
74420;DHT22;62855;50.718;-2.460;2022-11-15T03:17:06;52.70;90.00
74420;DHT22;62855;50.718;-2.460;2022-11-15T03:20:05;52.70;90.00
74420;DHT22;62855;50.718;-2.460;2022-11-15T03:23:05;52.70;90.00
74420;DHT22;62855;50.718;-2.460;2022-11-15T03:26:01;52.52;90.00
74420;DHT22;62855;50.718;-2.460;2022-11-15T03:29:04;52.52;91.00
74420;DHT22;62855;50.718;-2.460;2022-11-15T03:32:04;52.52;91.00
74420;DHT22;62855;50.718;-2.460;2022-11-15T03:35:05;52.52;91.00
74420;DHT22;62855;50.718;-2.460;2022-11-15T03:38:06;52.70;91.00
74420;DHT22;62855;50.718;-2.460;2022-11-15T03:41:04;52.70;91.00
74420;DHT22;62855;50.718;-2.460;2022-11-15T03:44:05;52.70;91.00
74420;DHT22;62855;50.718;-2.460;2022-11-15T03:47:03;52.70;91.00
74420;DHT22;62855;50.718;-2.460;2022-11-15T03:50:06;52.70;91.00
74420;DHT22;62855;50.718;-2.460;2022-11-15T03:53:01;52.70;91.00
74420;DHT22;62855;50.718;-2.460;2022-11-15T03:56:01;52.70;91.00
74420;DHT22;62855;50.718;-2.460;2022-11-15T03:59:01;52.70;91.00
74420;DHT22;62855;50.718;-2.460;2022-11-15T04:02:01;52.88;91.00
74420;DHT22;62855;50.718;-2.460;2022-11-15T04:05:01;52.88;91.00
74420;DHT22;62855;50.718;-2.460;2022-11-15T04:08:00;52.88;91.00
74420;DHT22;62855;50.718;-2.460;2022-11-15T04:11:01;52.88;91.00
74420;DHT22;62855;50.718;-2.460;2022-11-15T04:14:01;52.88;91.00
74420;DHT22;62855;50.718;-2.460;2022-11-15T04:17:01;52.88;91.00
74420;DHT22;62855;50.718;-2.460;2022-11-15T04:20:01;52.88;91.00
74420;DHT22;62855;50.718;-2.460;2022-11-15T04:23:03;52.88;91.00
74420;DHT22;62855;50.718;-2.460;2022-11-15T04:26:03;52.88;91.00
74420;DHT22;62855;50.718;-2.460;2022-11-15T04:29:01;52.88;91.00
74420;DHT22;62855;50.718;-2.460;2022-11-15T04:32:01;53.06;91.00
74420;DHT22;62855;50.718;-2.460;2022-11-15T04:35:01;53.06;91.00
74420;DHT22;62855;50.718;-2.460;2022-11-15T04:38:04;53.06;91.00
74420;DHT22;62855;50.718;-2.460;2022-11-15T04:41:02;53.06;91.00
74420;DHT22;62855;50.718;-2.460;2022-11-15T04:44:01;53.06;91.00
74420;DHT22;62855;50.718;-2.460;2022-11-15T04:47:02;53.06;91.00
74420;DHT22;62855;50.718;-2.460;2022-11-15T04:50:01;53.06;91.00
74420;DHT22;62855;50.718;-2.460;2022-11-15T04:53:01;53.06;91.00
74420;DHT22;62855;50.718;-2.460;2022-11-15T04:56:01;53.06;91.00
74420;DHT22;62855;50.718;-2.460;2022-11-15T04:59:01;53.06;91.00
74420;DHT22;62855;50.718;-2.460;2022-11-15T05:02:02;53.06;91.00
74420;DHT22;62855;50.718;-2.460;2022-11-15T05:05:01;53.06;91.00
74420;DHT22;62855;50.718;-2.460;2022-11-15T05:08:01;53.06;91.00
74420;DHT22;62855;50.718;-2.460;2022-11-15T05:11:01;53.06;91.00
74420;DHT22;62855;50.718;-2.460;2022-11-15T05:14:01;53.24;91.00
74420;DHT22;62855;50.718;-2.460;2022-11-15T05:17:00;53.24;91.00
74420;DHT22;62855;50.718;-2.460;2022-11-15T05:20:02;53.24;91.00
74420;DHT22;62855;50.718;-2.460;2022-11-15T05:23:01;53.24;91.00
74420;DHT22;62855;50.718;-2.460;2022-11-15T05:26:02;53.24;91.00
74420;DHT22;62855;50.718;-2.460;2022-11-15T05:29:01;53.42;88.00
74420;DHT22;62855;50.718;-2.460;2022-11-15T05:32:00;53.42;88.00
74420;DHT22;62855;50.718;-2.460;2022-11-15T05:35:00;53.42;88.00
74420;DHT22;62855;50.718;-2.460;2022-11-15T05:38:01;53.42;88.00
74420;DHT22;62855;50.718;-2.460;2022-11-15T05:42:05;53.42;88.00
74420;DHT22;62855;50.718;-2.460;2022-11-15T05:45:02;53.42;88.00
74420;DHT22;62855;50.718;-2.460;2022-11-15T05:48:05;53.42;88.00
74420;DHT22;62855;50.718;-2.460;2022-11-15T05:51:01;53.60;88.00
74420;DHT22;62855;50.718;-2.460;2022-11-15T05:54:01;53.60;88.00
74420;DHT22;62855;50.718;-2.460;2022-11-15T05:57:00;53.60;88.00
74420;DHT22;62855;50.718;-2.460;2022-11-15T06:00:02;53.60;88.00
74420;DHT22;62855;50.718;-2.460;2022-11-15T06:03:01;53.60;88.00
74420;DHT22;62855;50.718;-2.460;2022-11-15T06:06:01;53.78;88.00
74420;DHT22;62855;50.718;-2.460;2022-11-15T06:09:02;53.78;88.00
74420;DHT22;62855;50.718;-2.460;2022-11-15T06:12:01;53.78;88.00
74420;DHT22;62855;50.718;-2.460;2022-11-15T06:15:01;53.78;88.00
74420;DHT22;62855;50.718;-2.460;2022-11-15T06:18:01;53.78;88.00
74420;DHT22;62855;50.718;-2.460;2022-11-15T06:21:01;53.78;88.00
74420;DHT22;62855;50.718;-2.460;2022-11-15T06:24:01;53.78;88.00
74420;DHT22;62855;50.718;-2.460;2022-11-15T06:27:02;53.78;89.00
74420;DHT22;62855;50.718;-2.460;2022-11-15T06:30:00;53.96;89.00
74420;DHT22;62855;50.718;-2.460;2022-11-15T06:33:03;53.96;89.00
74420;DHT22;62855;50.718;-2.460;2022-11-15T06:36:01;53.96;89.00
74420;DHT22;62855;50.718;-2.460;2022-11-15T06:39:01;53.96;89.00
74420;DHT22;62855;50.718;-2.460;2022-11-15T06:43:01;53.96;89.00
74420;DHT22;62855;50.718;-2.460;2022-11-15T06:46:03;53.96;89.00
74420;DHT22;62855;50.718;-2.460;2022-11-15T06:49:01;53.96;89.00
74420;DHT22;62855;50.718;-2.460;2022-11-15T06:52:01;53.96;89.00
74420;DHT22;62855;50.718;-2.460;2022-11-15T06:55:00;53.96;89.00
74420;DHT22;62855;50.718;-2.460;2022-11-15T06:58:01;53.96;89.00
74420;DHT22;62855;50.718;-2.460;2022-11-15T07:01:04;53.96;89.00
74420;DHT22;62855;50.718;-2.460;2022-11-15T07:04:01;53.96;89.00
74420;DHT22;62855;50.718;-2.460;2022-11-15T07:07:02;54.14;89.00
74420;DHT22;62855;50.718;-2.460;2022-11-15T07:10:01;54.14;89.00
74420;DHT22;62855;50.718;-2.460;2022-11-15T07:13:01;54.14;89.00
74420;DHT22;62855;50.718;-2.460;2022-11-15T07:16:04;54.14;89.00
74420;DHT22;62855;50.718;-2.460;2022-11-15T07:19:01;54.14;89.00
74420;DHT22;62855;50.718;-2.460;2022-11-15T07:22:01;54.14;89.00
74420;DHT22;62855;50.718;-2.460;2022-11-15T07:25:01;54.14;89.00
74420;DHT22;62855;50.718;-2.460;2022-11-15T07:28:01;54.14;89.00
74420;DHT22;62855;50.718;-2.460;2022-11-15T07:31:02;54.14;89.00
74420;DHT22;62855;50.718;-2.460;2022-11-15T07:34:01;54.14;89.00
74420;DHT22;62855;50.718;-2.460;2022-11-15T07:37:01;54.14;89.00
74420;DHT22;62855;50.718;-2.460;2022-11-15T07:40:01;54.14;89.00
74420;DHT22;62855;50.718;-2.460;2022-11-15T07:43:01;54.32;89.00
74420;DHT22;62855;50.718;-2.460;2022-11-15T07:46:04;54.32;89.00
74420;DHT22;62855;50.718;-2.460;2022-11-15T07:49:01;54.32;89.00
74420;DHT22;62855;50.718;-2.460;2022-11-15T07:52:01;54.32;89.00
74420;DHT22;62855;50.718;-2.460;2022-11-15T07:55:01;54.32;89.00
74420;DHT22;62855;50.718;-2.460;2022-11-15T07:58:02;54.32;89.00
74420;DHT22;62855;50.718;-2.460;2022-11-15T08:01:02;54.32;89.00
74420;DHT22;62855;50.718;-2.460;2022-11-15T08:04:00;54.32;89.00
74420;DHT22;62855;50.718;-2.460;2022-11-15T08:07:01;54.32;89.00
74420;DHT22;62855;50.718;-2.460;2022-11-15T08:10:02;54.32;89.00
74420;DHT22;62855;50.718;-2.460;2022-11-15T08:13:02;54.32;89.00
74420;DHT22;62855;50.718;-2.460;2022-11-15T08:16:02;54.32;89.00
74420;DHT22;62855;50.718;-2.460;2022-11-15T08:19:01;54.32;89.00
74420;DHT22;62855;50.718;-2.460;2022-11-15T08:22:02;54.32;89.00
74420;DHT22;62855;50.718;-2.460;2022-11-15T08:25:02;54.32;89.00
74420;DHT22;62855;50.718;-2.460;2022-11-15T08:28:02;54.32;89.00
74420;DHT22;62855;50.718;-2.460;2022-11-15T08:31:02;54.32;89.00
74420;DHT22;62855;50.718;-2.460;2022-11-15T08:34:01;54.32;89.00
74420;DHT22;62855;50.718;-2.460;2022-11-15T08:37:01;54.50;89.00
74420;DHT22;62855;50.718;-2.460;2022-11-15T08:40:02;54.50;89.00
74420;DHT22;62855;50.718;-2.460;2022-11-15T08:43:00;54.50;89.00
74420;DHT22;62855;50.718;-2.460;2022-11-15T08:46:03;54.50;89.00
74420;DHT22;62855;50.718;-2.460;2022-11-15T08:49:01;54.50;89.00
74420;DHT22;62855;50.718;-2.460;2022-11-15T08:52:02;54.68;89.00
74420;DHT22;62855;50.718;-2.460;2022-11-15T08:55:02;54.68;89.00
74420;DHT22;62855;50.718;-2.460;2022-11-15T08:58:01;54.68;90.00
74420;DHT22;62855;50.718;-2.460;2022-11-15T09:01:02;54.68;90.00
74420;DHT22;62855;50.718;-2.460;2022-11-15T09:04:01;54.68;90.00
74420;DHT22;62855;50.718;-2.460;2022-11-15T09:07:01;54.68;90.00
74420;DHT22;62855;50.718;-2.460;2022-11-15T09:10:01;54.68;90.00
74420;DHT22;62855;50.718;-2.460;2022-11-15T09:13:02;54.68;90.00
74420;DHT22;62855;50.718;-2.460;2022-11-15T09:16:01;54.68;90.00
74420;DHT22;62855;50.718;-2.460;2022-11-15T09:19:01;54.68;90.00
74420;DHT22;62855;50.718;-2.460;2022-11-15T09:22:05;54.68;90.00
74420;DHT22;62855;50.718;-2.460;2022-11-15T09:25:02;54.68;90.00
74420;DHT22;62855;50.718;-2.460;2022-11-15T09:28:05;54.68;90.00
74420;DHT22;62855;50.718;-2.460;2022-11-15T09:31:03;54.50;90.00
74420;DHT22;62855;50.718;-2.460;2022-11-15T09:34:02;54.14;90.00
74420;DHT22;62855;50.718;-2.460;2022-11-15T09:37:00;54.14;89.00
74420;DHT22;62855;50.718;-2.460;2022-11-15T09:40:02;53.96;89.00
74420;DHT22;62855;50.718;-2.460;2022-11-15T09:43:11;53.96;89.00
74420;DHT22;62855;50.718;-2.460;2022-11-15T09:46:10;53.96;89.00
74420;DHT22;62855;50.718;-2.460;2022-11-15T09:49:01;53.96;89.00
74420;DHT22;62855;50.718;-2.460;2022-11-15T09:52:01;53.96;89.00
74420;DHT22;62855;50.718;-2.460;2022-11-15T09:55:01;53.96;89.00
74420;DHT22;62855;50.718;-2.460;2022-11-15T09:58:07;53.96;89.00
74420;DHT22;62855;50.718;-2.460;2022-11-15T10:01:04;53.96;89.00
74420;DHT22;62855;50.718;-2.460;2022-11-15T10:04:00;53.96;89.00
74420;DHT22;62855;50.718;-2.460;2022-11-15T10:07:04;53.96;89.00
74420;DHT22;62855;50.718;-2.460;2022-11-15T10:10:04;53.96;89.00
74420;DHT22;62855;50.718;-2.460;2022-11-15T10:13:02;53.78;89.00
74420;DHT22;62855;50.718;-2.460;2022-11-15T10:16:12;53.60;89.00
74420;DHT22;62855;50.718;-2.460;2022-11-15T10:19:09;53.42;89.00
74420;DHT22;62855;50.718;-2.460;2022-11-15T10:22:14;53.24;92.00
74420;DHT22;62855;50.718;-2.460;2022-11-15T10:25:16;53.06;92.00
74420;DHT22;62855;50.718;-2.460;2022-11-15T10:28:06;53.24;92.00
74420;DHT22;62855;50.718;-2.460;2022-11-15T10:31:01;53.42;89.00
74420;DHT22;62855;50.718;-2.460;2022-11-15T10:34:12;53.78;89.00
74420;DHT22;62855;50.718;-2.460;2022-11-15T10:37:01;54.14;90.00
74420;DHT22;62855;50.718;-2.460;2022-11-15T10:40:04;54.14;90.00
74420;DHT22;62855;50.718;-2.460;2022-11-15T10:43:14;54.14;90.00
74420;DHT22;62855;50.718;-2.460;2022-11-15T10:46:16;53.96;90.00
74420;DHT22;62855;50.718;-2.460;2022-11-15T10:49:12;53.78;89.00
74420;DHT22;62855;50.718;-2.460;2022-11-15T10:52:04;53.78;89.00
74420;DHT22;62855;50.718;-2.460;2022-11-15T10:55:05;53.78;89.00
74420;DHT22;62855;50.718;-2.460;2022-11-15T10:58:03;53.78;89.00
74420;DHT22;62855;50.718;-2.460;2022-11-15T11:01:11;53.78;89.00
74420;DHT22;62855;50.718;-2.460;2022-11-15T11:04:03;54.14;90.00
74420;DHT22;62855;50.718;-2.460;2022-11-15T11:07:01;54.32;90.00
74420;DHT22;62855;50.718;-2.460;2022-11-15T11:10:17;54.14;90.00
74420;DHT22;62855;50.718;-2.460;2022-11-15T11:13:13;53.96;89.00
74420;DHT22;62855;50.718;-2.460;2022-11-15T11:16:21;53.78;89.00
74420;DHT22;62855;50.718;-2.460;2022-11-15T11:19:04;53.78;89.00
74420;DHT22;62855;50.718;-2.460;2022-11-15T11:22:05;53.78;89.00
74420;DHT22;62855;50.718;-2.460;2022-11-15T11:25:15;53.96;89.00
74420;DHT22;62855;50.718;-2.460;2022-11-15T11:28:17;53.96;89.00
74420;DHT22;62855;50.718;-2.460;2022-11-15T11:31:12;53.96;89.00
74420;DHT22;62855;50.718;-2.460;2022-11-15T11:34:13;53.96;89.00
74420;DHT22;62855;50.718;-2.460;2022-11-15T11:37:03;53.78;89.00
74420;DHT22;62855;50.718;-2.460;2022-11-15T11:37:12;53.78;89.00
74420;DHT22;62855;50.718;-2.460;2022-11-15T11:40:12;53.60;89.00
74420;DHT22;62855;50.718;-2.460;2022-11-15T11:43:04;53.24;91.00
74420;DHT22;62855;50.718;-2.460;2022-11-15T11:43:08;53.24;91.00
74420;DHT22;62855;50.718;-2.460;2022-11-15T11:46:11;53.24;91.00
74420;DHT22;62855;50.718;-2.460;2022-11-15T11:46:13;53.24;91.00
74420;DHT22;62855;50.718;-2.460;2022-11-15T11:49:06;53.24;91.00
74420;DHT22;62855;50.718;-2.460;2022-11-15T11:49:06;53.24;91.00
74420;DHT22;62855;50.718;-2.460;2022-11-15T12:01:13;53.42;87.00
74420;DHT22;62855;50.718;-2.460;2022-11-15T12:04:04;53.60;87.00
74420;DHT22;62855;50.718;-2.460;2022-11-15T12:07:08;53.60;87.00
74420;DHT22;62855;50.718;-2.460;2022-11-15T12:10:04;53.42;86.00
74420;DHT22;62855;50.718;-2.460;2022-11-15T12:13:03;53.24;90.00
74420;DHT22;62855;50.718;-2.460;2022-11-15T12:16:05;53.42;85.00
74420;DHT22;62855;50.718;-2.460;2022-11-15T12:19:03;53.60;85.00
74420;DHT22;62855;50.718;-2.460;2022-11-15T12:22:04;53.78;85.00
74420;DHT22;62855;50.718;-2.460;2022-11-15T12:25:04;53.78;85.00
74420;DHT22;62855;50.718;-2.460;2022-11-15T12:28:06;53.78;84.00
74420;DHT22;62855;50.718;-2.460;2022-11-15T12:31:05;53.60;83.00
74420;DHT22;62855;50.718;-2.460;2022-11-15T12:34:02;53.60;83.00
74420;DHT22;62855;50.718;-2.460;2022-11-15T12:37:01;53.60;83.00
74420;DHT22;62855;50.718;-2.460;2022-11-15T12:46:04;53.42;82.00
74420;DHT22;62855;50.718;-2.460;2022-11-15T12:49:03;53.24;85.00
74420;DHT22;62855;50.718;-2.460;2022-11-15T12:52:05;53.06;84.00
74420;DHT22;62855;50.718;-2.460;2022-11-15T12:55:08;52.88;84.00
74420;DHT22;62855;50.718;-2.460;2022-11-15T13:01:01;52.52;84.00
74420;DHT22;62855;50.718;-2.460;2022-11-15T13:04:13;52.52;84.00
74420;DHT22;62855;50.718;-2.460;2022-11-15T13:07:03;52.52;84.00
74420;DHT22;62855;50.718;-2.460;2022-11-15T13:10:07;52.52;84.00
74420;DHT22;62855;50.718;-2.460;2022-11-15T13:13:02;52.70;84.00
74420;DHT22;62855;50.718;-2.460;2022-11-15T13:16:01;52.70;84.00
74420;DHT22;62855;50.718;-2.460;2022-11-15T13:19:02;52.88;85.00
74420;DHT22;62855;50.718;-2.460;2022-11-15T13:22:04;52.88;85.00
74420;DHT22;62855;50.718;-2.460;2022-11-15T13:25:02;52.88;85.00
74420;DHT22;62855;50.718;-2.460;2022-11-15T13:28:03;52.70;84.00
74420;DHT22;62855;50.718;-2.460;2022-11-15T13:31:21;52.70;84.00
74420;DHT22;62855;50.718;-2.460;2022-11-15T13:34:12;52.88;84.00
74420;DHT22;62855;50.718;-2.460;2022-11-15T13:37:01;53.06;84.00
74420;DHT22;62855;50.718;-2.460;2022-11-15T13:40:20;53.06;84.00
74420;DHT22;62855;50.718;-2.460;2022-11-15T13:43:17;53.06;84.00
74420;DHT22;62855;50.718;-2.460;2022-11-15T13:46:12;53.24;84.00
74420;DHT22;62855;50.718;-2.460;2022-11-15T13:49:03;53.24;84.00
74420;DHT22;62855;50.718;-2.460;2022-11-15T13:52:03;53.06;84.00
74420;DHT22;62855;50.718;-2.460;2022-11-15T13:55:05;53.06;84.00
74420;DHT22;62855;50.718;-2.460;2022-11-15T13:58:03;53.24;83.00
74420;DHT22;62855;50.718;-2.460;2022-11-15T14:01:02;53.24;83.00
74420;DHT22;62855;50.718;-2.460;2022-11-15T14:04:01;53.06;82.00
74420;DHT22;62855;50.718;-2.460;2022-11-15T14:07:01;53.06;82.00
74420;DHT22;62855;50.718;-2.460;2022-11-15T14:10:24;52.88;80.00
74420;DHT22;62855;50.718;-2.460;2022-11-15T14:13:03;52.70;80.00
74420;DHT22;62855;50.718;-2.460;2022-11-15T14:16:14;52.70;80.00
74420;DHT22;62855;50.718;-2.460;2022-11-15T14:19:01;52.70;80.00
74420;DHT22;62855;50.718;-2.460;2022-11-15T14:22:11;52.70;80.00
74420;DHT22;62855;50.718;-2.460;2022-11-15T14:25:14;52.52;80.00
74420;DHT22;62855;50.718;-2.460;2022-11-15T14:28:15;52.52;80.00
74420;DHT22;62855;50.718;-2.460;2022-11-15T14:31:04;51.44;79.00
74420;DHT22;62855;50.718;-2.460;2022-11-15T14:34:01;50.54;78.00
74420;DHT22;62855;50.718;-2.460;2022-11-15T14:37:01;50.00;79.00
74420;DHT22;62855;50.718;-2.460;2022-11-15T14:40:02;50.00;80.00
74420;DHT22;62855;50.718;-2.460;2022-11-15T14:43:01;50.00;81.00
74420;DHT22;62855;50.718;-2.460;2022-11-15T14:46:00;50.00;82.00
74420;DHT22;62855;50.718;-2.460;2022-11-15T14:52:00;50.00;83.00
74420;DHT22;62855;50.718;-2.460;2022-11-15T14:55:04;50.18;84.00
74420;DHT22;62855;50.718;-2.460;2022-11-15T14:58:01;50.18;84.00
74420;DHT22;62855;50.718;-2.460;2022-11-15T15:01:02;50.00;85.00
74420;DHT22;62855;50.718;-2.460;2022-11-15T15:04:01;50.00;85.00
74420;DHT22;62855;50.718;-2.460;2022-11-15T15:07:01;50.00;85.00
74420;DHT22;62855;50.718;-2.460;2022-11-15T15:10:02;49.82;85.00
74420;DHT22;62855;50.718;-2.460;2022-11-15T15:13:01;49.82;85.00
74420;DHT22;62855;50.718;-2.460;2022-11-15T15:16:01;49.82;85.00
74420;DHT22;62855;50.718;-2.460;2022-11-15T15:19:01;49.82;85.00
74420;DHT22;62855;50.718;-2.460;2022-11-15T15:22:00;49.64;85.00
74420;DHT22;62855;50.718;-2.460;2022-11-15T15:25:01;49.64;85.00
74420;DHT22;62855;50.718;-2.460;2022-11-15T15:28:01;49.64;85.00
74420;DHT22;62855;50.718;-2.460;2022-11-15T15:31:02;49.64;85.00
74420;DHT22;62855;50.718;-2.460;2022-11-15T15:34:00;49.64;85.00
74420;DHT22;62855;50.718;-2.460;2022-11-15T15:37:13;49.64;86.00
74420;DHT22;62855;50.718;-2.460;2022-11-15T15:40:01;49.64;86.00
74420;DHT22;62855;50.718;-2.460;2022-11-15T15:43:01;49.82;86.00
74420;DHT22;62855;50.718;-2.460;2022-11-15T15:46:01;49.64;86.00
74420;DHT22;62855;50.718;-2.460;2022-11-15T15:49:01;49.64;85.00
74420;DHT22;62855;50.718;-2.460;2022-11-15T15:52:01;49.64;84.00
74420;DHT22;62855;50.718;-2.460;2022-11-15T15:55:01;49.64;83.00
74420;DHT22;62855;50.718;-2.460;2022-11-15T15:58:01;49.64;82.00
74420;DHT22;62855;50.718;-2.460;2022-11-15T16:02:00;49.46;82.00
74420;DHT22;62855;50.718;-2.460;2022-11-15T16:05:00;49.46;81.00
74420;DHT22;62855;50.718;-2.460;2022-11-15T16:08:01;49.28;80.00
74420;DHT22;62855;50.718;-2.460;2022-11-15T16:11:00;49.28;80.00
74420;DHT22;62855;50.718;-2.460;2022-11-15T16:14:01;49.28;80.00
74420;DHT22;62855;50.718;-2.460;2022-11-15T16:17:01;49.28;80.00
74420;DHT22;62855;50.718;-2.460;2022-11-15T16:20:01;49.28;80.00
74420;DHT22;62855;50.718;-2.460;2022-11-15T16:23:01;49.28;80.00
74420;DHT22;62855;50.718;-2.460;2022-11-15T16:26:01;49.28;81.00
74420;DHT22;62855;50.718;-2.460;2022-11-15T16:29:01;49.10;81.00
74420;DHT22;62855;50.718;-2.460;2022-11-15T16:32:01;49.10;81.00
74420;DHT22;62855;50.718;-2.460;2022-11-15T16:35:01;49.10;81.00
74420;DHT22;62855;50.718;-2.460;2022-11-15T16:38:01;49.10;82.00
74420;DHT22;62855;50.718;-2.460;2022-11-15T16:41:01;48.92;82.00
74420;DHT22;62855;50.718;-2.460;2022-11-15T16:44:01;48.56;82.00
74420;DHT22;62855;50.718;-2.460;2022-11-15T16:47:01;48.38;82.00
74420;DHT22;62855;50.718;-2.460;2022-11-15T16:50:02;48.38;82.00
74420;DHT22;62855;50.718;-2.460;2022-11-15T16:53:00;48.38;82.00
74420;DHT22;62855;50.718;-2.460;2022-11-15T16:56:01;48.20;82.00
74420;DHT22;62855;50.718;-2.460;2022-11-15T16:59:01;48.20;82.00
74420;DHT22;62855;50.718;-2.460;2022-11-15T17:02:01;48.20;82.00
74420;DHT22;62855;50.718;-2.460;2022-11-15T17:05:01;48.20;82.00
74420;DHT22;62855;50.718;-2.460;2022-11-15T17:08:01;48.20;82.00
74420;DHT22;62855;50.718;-2.460;2022-11-15T17:11:04;48.20;82.00
74420;DHT22;62855;50.718;-2.460;2022-11-15T17:14:01;48.20;82.00
74420;DHT22;62855;50.718;-2.460;2022-11-15T17:17:01;48.20;82.00
74420;DHT22;62855;50.718;-2.460;2022-11-15T17:20:01;48.38;82.00
74420;DHT22;62855;50.718;-2.460;2022-11-15T17:23:00;48.38;82.00
74420;DHT22;62855;50.718;-2.460;2022-11-15T17:26:02;48.38;82.00
74420;DHT22;62855;50.718;-2.460;2022-11-15T17:29:01;48.38;82.00
74420;DHT22;62855;50.718;-2.460;2022-11-15T17:32:02;48.38;81.00
74420;DHT22;62855;50.718;-2.460;2022-11-15T17:35:01;48.38;80.00
74420;DHT22;62855;50.718;-2.460;2022-11-15T17:38:01;48.38;80.00
74420;DHT22;62855;50.718;-2.460;2022-11-15T17:41:02;48.56;80.00
74420;DHT22;62855;50.718;-2.460;2022-11-15T17:44:01;48.56;79.00
74420;DHT22;62855;50.718;-2.460;2022-11-15T17:47:00;48.56;78.00
74420;DHT22;62855;50.718;-2.460;2022-11-15T17:50:00;48.74;78.00
74420;DHT22;62855;50.718;-2.460;2022-11-15T17:53:01;48.74;78.00
74420;DHT22;62855;50.718;-2.460;2022-11-15T17:56:02;48.74;77.00
74420;DHT22;62855;50.718;-2.460;2022-11-15T17:59:01;48.74;77.00
74420;DHT22;62855;50.718;-2.460;2022-11-15T18:02:01;48.74;77.00
74420;DHT22;62855;50.718;-2.460;2022-11-15T18:05:01;48.74;77.00
74420;DHT22;62855;50.718;-2.460;2022-11-15T18:08:02;48.74;76.00
74420;DHT22;62855;50.718;-2.460;2022-11-15T18:11:03;48.74;76.00
74420;DHT22;62855;50.718;-2.460;2022-11-15T18:14:03;48.56;76.00
74420;DHT22;62855;50.718;-2.460;2022-11-15T18:17:00;48.74;76.00
74420;DHT22;62855;50.718;-2.460;2022-11-15T18:20:01;48.74;76.00
74420;DHT22;62855;50.718;-2.460;2022-11-15T18:23:00;48.74;75.00
74420;DHT22;62855;50.718;-2.460;2022-11-15T18:26:02;48.74;75.00
74420;DHT22;62855;50.718;-2.460;2022-11-15T18:29:03;48.74;75.00
74420;DHT22;62855;50.718;-2.460;2022-11-15T18:32:01;48.74;75.00
74420;DHT22;62855;50.718;-2.460;2022-11-15T18:35:01;48.56;75.00
74420;DHT22;62855;50.718;-2.460;2022-11-15T18:38:01;48.56;75.00
74420;DHT22;62855;50.718;-2.460;2022-11-15T18:41:05;48.56;75.00
74420;DHT22;62855;50.718;-2.460;2022-11-15T18:44:01;48.56;75.00
74420;DHT22;62855;50.718;-2.460;2022-11-15T18:47:01;48.56;75.00
74420;DHT22;62855;50.718;-2.460;2022-11-15T18:50:02;48.74;75.00
74420;DHT22;62855;50.718;-2.460;2022-11-15T18:53:01;48.92;76.00